sensor_id;sensor_type;location;lat;lon;timestamp;temperature;humidity
2869;DHT22;1442;47.448;8.582;2024-03-06T00:02:13;6.20;99.90
2869;DHT22;1442;47.448;8.582;2024-03-06T00:04:40;6.10;99.90
2869;DHT22;1442;47.448;8.582;2024-03-06T00:07:07;6.10;99.90
2869;DHT22;1442;47.448;8.582;2024-03-06T00:09:35;6.00;99.90
2869;DHT22;1442;47.448;8.582;2024-03-06T00:12:02;6.00;99.90
2869;DHT22;1442;47.448;8.582;2024-03-06T00:14:29;6.00;99.90
2869;DHT22;1442;47.448;8.582;2024-03-06T00:16:56;5.90;99.90
2869;DHT22;1442;47.448;8.582;2024-03-06T00:19:23;5.90;99.90
2869;DHT22;1442;47.448;8.582;2024-03-06T00:21:50;5.90;99.90
2869;DHT22;1442;47.448;8.582;2024-03-06T00:24:16;5.80;99.90
2869;DHT22;1442;47.448;8.582;2024-03-06T00:26:45;5.80;99.90
2869;DHT22;1442;47.448;8.582;2024-03-06T00:29:12;5.70;99.90
2869;DHT22;1442;47.448;8.582;2024-03-06T00:31:42;5.70;99.90
2869;DHT22;1442;47.448;8.582;2024-03-06T00:34:09;5.60;99.90
2869;DHT22;1442;47.448;8.582;2024-03-06T00:36:36;5.50;99.90
2869;DHT22;1442;47.448;8.582;2024-03-06T00:39:03;5.60;99.90
2869;DHT22;1442;47.448;8.582;2024-03-06T00:41:30;5.60;99.90
2869;DHT22;1442;47.448;8.582;2024-03-06T00:43:58;5.50;99.90
2869;DHT22;1442;47.448;8.582;2024-03-06T00:46:25;5.50;99.90
2869;DHT22;1442;47.448;8.582;2024-03-06T00:48:52;5.50;99.90
2869;DHT22;1442;47.448;8.582;2024-03-06T00:51:19;5.50;99.90
2869;DHT22;1442;47.448;8.582;2024-03-06T00:53:45;5.40;99.90
2869;DHT22;1442;47.448;8.582;2024-03-06T00:56:12;5.40;99.90
2869;DHT22;1442;47.448;8.582;2024-03-06T00:58:39;5.30;99.90
2869;DHT22;1442;47.448;8.582;2024-03-06T01:01:07;5.30;99.90
2869;DHT22;1442;47.448;8.582;2024-03-06T01:03:34;5.30;99.90
2869;DHT22;1442;47.448;8.582;2024-03-06T01:06:01;5.30;99.90
2869;DHT22;1442;47.448;8.582;2024-03-06T01:08:27;5.30;99.90
2869;DHT22;1442;47.448;8.582;2024-03-06T01:10:56;5.30;99.90
2869;DHT22;1442;47.448;8.582;2024-03-06T01:13:23;5.30;99.90
2869;DHT22;1442;47.448;8.582;2024-03-06T01:15:50;5.30;99.90
2869;DHT22;1442;47.448;8.582;2024-03-06T01:18:18;5.10;99.90
2869;DHT22;1442;47.448;8.582;2024-03-06T01:20:45;5.30;99.90
2869;DHT22;1442;47.448;8.582;2024-03-06T01:23:12;5.20;99.90
2869;DHT22;1442;47.448;8.582;2024-03-06T01:25:38;5.20;99.90
2869;DHT22;1442;47.448;8.582;2024-03-06T01:28:05;5.20;99.90
2869;DHT22;1442;47.448;8.582;2024-03-06T01:30:32;5.20;99.90
2869;DHT22;1442;47.448;8.582;2024-03-06T01:32:59;5.10;99.90
2869;DHT22;1442;47.448;8.582;2024-03-06T01:35:27;5.10;99.90
2869;DHT22;1442;47.448;8.582;2024-03-06T01:37:54;5.10;99.90
2869;DHT22;1442;47.448;8.582;2024-03-06T01:40:20;5.10;99.90
2869;DHT22;1442;47.448;8.582;2024-03-06T01:42:47;5.00;99.90
2869;DHT22;1442;47.448;8.582;2024-03-06T01:45:14;4.90;99.90
2869;DHT22;1442;47.448;8.582;2024-03-06T01:47:41;4.90;99.90
2869;DHT22;1442;47.448;8.582;2024-03-06T01:50:09;4.90;99.90
2869;DHT22;1442;47.448;8.582;2024-03-06T01:52:39;4.90;99.90
2869;DHT22;1442;47.448;8.582;2024-03-06T01:55:07;4.90;99.90
2869;DHT22;1442;47.448;8.582;2024-03-06T01:57:34;4.80;99.90
2869;DHT22;1442;47.448;8.582;2024-03-06T02:00:03;4.80;99.90
2869;DHT22;1442;47.448;8.582;2024-03-06T02:02:30;4.80;99.90
2869;DHT22;1442;47.448;8.582;2024-03-06T02:04:57;4.80;99.90
2869;DHT22;1442;47.448;8.582;2024-03-06T02:07:25;4.80;99.90
2869;DHT22;1442;47.448;8.582;2024-03-06T02:09:53;4.80;99.90
2869;DHT22;1442;47.448;8.582;2024-03-06T02:12:20;4.80;99.90
2869;DHT22;1442;47.448;8.582;2024-03-06T02:14:47;4.70;99.90
2869;DHT22;1442;47.448;8.582;2024-03-06T02:17:14;4.70;99.90
2869;DHT22;1442;47.448;8.582;2024-03-06T02:19:42;4.70;99.90
2869;DHT22;1442;47.448;8.582;2024-03-06T02:22:11;4.70;99.90
2869;DHT22;1442;47.448;8.582;2024-03-06T02:24:43;4.60;99.90
2869;DHT22;1442;47.448;8.582;2024-03-06T02:27:10;4.60;99.90
2869;DHT22;1442;47.448;8.582;2024-03-06T02:29:37;4.60;99.90
2869;DHT22;1442;47.448;8.582;2024-03-06T02:32:04;4.60;99.90
2869;DHT22;1442;47.448;8.582;2024-03-06T02:34:31;4.50;99.90
2869;DHT22;1442;47.448;8.582;2024-03-06T02:36:58;4.50;99.90
2869;DHT22;1442;47.448;8.582;2024-03-06T02:39:26;4.50;99.90
2869;DHT22;1442;47.448;8.582;2024-03-06T02:41:52;4.50;99.90
2869;DHT22;1442;47.448;8.582;2024-03-06T02:44:19;4.50;99.90
2869;DHT22;1442;47.448;8.582;2024-03-06T02:46:47;4.50;99.90
2869;DHT22;1442;47.448;8.582;2024-03-06T02:49:15;4.50;99.90
2869;DHT22;1442;47.448;8.582;2024-03-06T02:51:42;4.50;99.90
2869;DHT22;1442;47.448;8.582;2024-03-06T02:54:09;4.50;99.90
2869;DHT22;1442;47.448;8.582;2024-03-06T02:56:37;4.40;99.90
2869;DHT22;1442;47.448;8.582;2024-03-06T02:59:04;4.50;99.90
2869;DHT22;1442;47.448;8.582;2024-03-06T03:01:30;4.50;99.90
2869;DHT22;1442;47.448;8.582;2024-03-06T03:03:57;4.40;99.90
2869;DHT22;1442;47.448;8.582;2024-03-06T03:06:24;4.40;99.90
2869;DHT22;1442;47.448;8.582;2024-03-06T03:08:51;4.40;99.90
2869;DHT22;1442;47.448;8.582;2024-03-06T03:11:18;4.40;99.90
2869;DHT22;1442;47.448;8.582;2024-03-06T03:13:46;4.40;99.90
2869;DHT22;1442;47.448;8.582;2024-03-06T03:16:16;4.40;99.90
2869;DHT22;1442;47.448;8.582;2024-03-06T03:18:44;4.40;99.90
2869;DHT22;1442;47.448;8.582;2024-03-06T03:21:10;4.40;99.90
2869;DHT22;1442;47.448;8.582;2024-03-06T03:23:37;4.30;99.90
2869;DHT22;1442;47.448;8.582;2024-03-06T03:26:05;4.30;99.90
2869;DHT22;1442;47.448;8.582;2024-03-06T03:28:32;4.30;99.90
2869;DHT22;1442;47.448;8.582;2024-03-06T03:31:00;4.30;99.90
2869;DHT22;1442;47.448;8.582;2024-03-06T03:33:27;4.30;99.90
2869;DHT22;1442;47.448;8.582;2024-03-06T03:35:53;4.30;99.90
2869;DHT22;1442;47.448;8.582;2024-03-06T03:38:20;4.30;99.90
2869;DHT22;1442;47.448;8.582;2024-03-06T03:40:47;4.30;99.90
2869;DHT22;1442;47.448;8.582;2024-03-06T03:43:13;4.30;99.90
2869;DHT22;1442;47.448;8.582;2024-03-06T03:45:41;4.30;99.90
2869;DHT22;1442;47.448;8.582;2024-03-06T03:48:09;4.30;99.90
2869;DHT22;1442;47.448;8.582;2024-03-06T03:50:36;4.30;99.90
2869;DHT22;1442;47.448;8.582;2024-03-06T03:53:03;4.30;99.90
2869;DHT22;1442;47.448;8.582;2024-03-06T03:55:30;4.30;99.90
2869;DHT22;1442;47.448;8.582;2024-03-06T03:57:56;4.30;99.90
2869;DHT22;1442;47.448;8.582;2024-03-06T04:00:23;4.30;99.90
2869;DHT22;1442;47.448;8.582;2024-03-06T04:02:50;4.30;99.90
2869;DHT22;1442;47.448;8.582;2024-03-06T04:05:18;4.30;99.90
2869;DHT22;1442;47.448;8.582;2024-03-06T04:07:45;4.20;99.90
2869;DHT22;1442;47.448;8.582;2024-03-06T04:10:12;4.20;99.90
2869;DHT22;1442;47.448;8.582;2024-03-06T04:12:38;4.30;99.90
2869;DHT22;1442;47.448;8.582;2024-03-06T04:15:06;4.20;99.90
2869;DHT22;1442;47.448;8.582;2024-03-06T04:17:34;4.20;99.90
2869;DHT22;1442;47.448;8.582;2024-03-06T04:20:01;4.30;99.90
2869;DHT22;1442;47.448;8.582;2024-03-06T04:22:29;4.30;99.90
2869;DHT22;1442;47.448;8.582;2024-03-06T04:24:56;4.20;99.90
2869;DHT22;1442;47.448;8.582;2024-03-06T04:27:24;4.20;99.90
2869;DHT22;1442;47.448;8.582;2024-03-06T04:29:51;4.10;99.90
2869;DHT22;1442;47.448;8.582;2024-03-06T04:32:18;4.10;99.90
2869;DHT22;1442;47.448;8.582;2024-03-06T04:34:45;4.10;99.90
2869;DHT22;1442;47.448;8.582;2024-03-06T04:37:12;4.00;99.90
2869;DHT22;1442;47.448;8.582;2024-03-06T04:39:40;4.00;99.90
2869;DHT22;1442;47.448;8.582;2024-03-06T04:42:07;3.90;99.90
2869;DHT22;1442;47.448;8.582;2024-03-06T04:44:34;3.90;99.90
2869;DHT22;1442;47.448;8.582;2024-03-06T04:47:01;3.90;99.90
2869;DHT22;1442;47.448;8.582;2024-03-06T04:49:28;3.90;99.90
2869;DHT22;1442;47.448;8.582;2024-03-06T04:51:58;3.90;99.90
2869;DHT22;1442;47.448;8.582;2024-03-06T04:54:25;3.90;99.90
2869;DHT22;1442;47.448;8.582;2024-03-06T04:56:53;3.90;99.90
2869;DHT22;1442;47.448;8.582;2024-03-06T04:59:20;3.90;99.90
2869;DHT22;1442;47.448;8.582;2024-03-06T05:01:47;3.90;99.90
2869;DHT22;1442;47.448;8.582;2024-03-06T05:04:13;3.90;99.90
2869;DHT22;1442;47.448;8.582;2024-03-06T05:06:40;3.90;99.90
2869;DHT22;1442;47.448;8.582;2024-03-06T05:09:07;3.90;99.90
2869;DHT22;1442;47.448;8.582;2024-03-06T05:11:37;3.90;99.90
2869;DHT22;1442;47.448;8.582;2024-03-06T05:14:05;3.90;99.90
2869;DHT22;1442;47.448;8.582;2024-03-06T05:16:32;3.80;99.90
2869;DHT22;1442;47.448;8.582;2024-03-06T05:19:00;3.70;99.90
2869;DHT22;1442;47.448;8.582;2024-03-06T05:21:27;3.70;99.90
2869;DHT22;1442;47.448;8.582;2024-03-06T05:23:53;3.70;99.90
2869;DHT22;1442;47.448;8.582;2024-03-06T05:26:20;3.70;99.90
2869;DHT22;1442;47.448;8.582;2024-03-06T05:28:47;3.70;99.90
2869;DHT22;1442;47.448;8.582;2024-03-06T05:31:18;3.70;99.90
2869;DHT22;1442;47.448;8.582;2024-03-06T05:33:47;3.70;99.90
2869;DHT22;1442;47.448;8.582;2024-03-06T05:36:14;3.80;99.90
2869;DHT22;1442;47.448;8.582;2024-03-06T05:38:40;3.90;99.90
2869;DHT22;1442;47.448;8.582;2024-03-06T05:41:08;3.90;99.90
2869;DHT22;1442;47.448;8.582;2024-03-06T05:43:35;3.90;99.90
2869;DHT22;1442;47.448;8.582;2024-03-06T05:46:02;3.90;99.90
2869;DHT22;1442;47.448;8.582;2024-03-06T05:48:30;3.90;99.90
2869;DHT22;1442;47.448;8.582;2024-03-06T05:50:58;4.00;99.90
2869;DHT22;1442;47.448;8.582;2024-03-06T05:53:24;4.00;99.90
2869;DHT22;1442;47.448;8.582;2024-03-06T05:55:52;4.00;99.90
2869;DHT22;1442;47.448;8.582;2024-03-06T05:58:20;4.00;99.90
2869;DHT22;1442;47.448;8.582;2024-03-06T06:00:47;4.00;99.90
2869;DHT22;1442;47.448;8.582;2024-03-06T06:03:14;4.00;99.90
2869;DHT22;1442;47.448;8.582;2024-03-06T06:05:42;4.00;99.90
2869;DHT22;1442;47.448;8.582;2024-03-06T06:08:09;4.00;99.90
2869;DHT22;1442;47.448;8.582;2024-03-06T06:10:36;4.10;99.90
2869;DHT22;1442;47.448;8.582;2024-03-06T06:13:03;4.10;99.90
2869;DHT22;1442;47.448;8.582;2024-03-06T06:15:30;4.10;99.90
2869;DHT22;1442;47.448;8.582;2024-03-06T06:17:57;4.20;99.90
2869;DHT22;1442;47.448;8.582;2024-03-06T06:20:24;4.20;99.90
2869;DHT22;1442;47.448;8.582;2024-03-06T06:22:52;4.20;99.90
2869;DHT22;1442;47.448;8.582;2024-03-06T06:25:19;4.20;99.90
2869;DHT22;1442;47.448;8.582;2024-03-06T06:27:45;4.20;99.90
2869;DHT22;1442;47.448;8.582;2024-03-06T06:30:14;4.20;99.90
2869;DHT22;1442;47.448;8.582;2024-03-06T06:32:41;4.20;99.90
2869;DHT22;1442;47.448;8.582;2024-03-06T06:35:09;4.30;99.90
2869;DHT22;1442;47.448;8.582;2024-03-06T06:37:37;4.20;99.90
2869;DHT22;1442;47.448;8.582;2024-03-06T06:40:06;4.30;99.90
2869;DHT22;1442;47.448;8.582;2024-03-06T06:42:34;4.30;99.90
2869;DHT22;1442;47.448;8.582;2024-03-06T06:45:01;4.20;99.90
2869;DHT22;1442;47.448;8.582;2024-03-06T06:47:28;4.20;99.90
2869;DHT22;1442;47.448;8.582;2024-03-06T06:49:55;4.20;99.90
2869;DHT22;1442;47.448;8.582;2024-03-06T06:52:22;4.10;99.90
2869;DHT22;1442;47.448;8.582;2024-03-06T06:54:48;4.20;99.90
2869;DHT22;1442;47.448;8.582;2024-03-06T06:57:18;4.10;99.90
2869;DHT22;1442;47.448;8.582;2024-03-06T06:59:45;4.20;99.90
2869;DHT22;1442;47.448;8.582;2024-03-06T07:02:12;4.20;99.90
2869;DHT22;1442;47.448;8.582;2024-03-06T07:04:39;4.20;99.90
2869;DHT22;1442;47.448;8.582;2024-03-06T07:07:06;4.30;99.90
2869;DHT22;1442;47.448;8.582;2024-03-06T07:09:34;4.30;99.90
2869;DHT22;1442;47.448;8.582;2024-03-06T07:12:01;4.40;99.90
2869;DHT22;1442;47.448;8.582;2024-03-06T07:14:29;4.40;99.90
2869;DHT22;1442;47.448;8.582;2024-03-06T07:16:56;4.50;99.90
2869;DHT22;1442;47.448;8.582;2024-03-06T07:19:23;4.50;99.90
2869;DHT22;1442;47.448;8.582;2024-03-06T07:21:50;4.50;99.90
2869;DHT22;1442;47.448;8.582;2024-03-06T07:24:17;4.50;99.90
2869;DHT22;1442;47.448;8.582;2024-03-06T07:26:44;4.50;99.90
2869;DHT22;1442;47.448;8.582;2024-03-06T07:29:11;4.50;99.90
2869;DHT22;1442;47.448;8.582;2024-03-06T07:31:42;4.50;99.90
2869;DHT22;1442;47.448;8.582;2024-03-06T07:34:08;4.60;99.90
2869;DHT22;1442;47.448;8.582;2024-03-06T07:36:35;4.50;99.90
2869;DHT22;1442;47.448;8.582;2024-03-06T07:39:02;4.60;99.90
2869;DHT22;1442;47.448;8.582;2024-03-06T07:41:30;4.60;99.90
2869;DHT22;1442;47.448;8.582;2024-03-06T07:43:58;4.60;99.90
2869;DHT22;1442;47.448;8.582;2024-03-06T07:46:26;4.60;99.90
2869;DHT22;1442;47.448;8.582;2024-03-06T07:48:54;4.70;99.90
2869;DHT22;1442;47.448;8.582;2024-03-06T07:51:21;4.70;99.90
2869;DHT22;1442;47.448;8.582;2024-03-06T07:53:48;4.70;99.90
2869;DHT22;1442;47.448;8.582;2024-03-06T07:56:16;4.70;99.90
2869;DHT22;1442;47.448;8.582;2024-03-06T07:58:42;4.80;99.90
2869;DHT22;1442;47.448;8.582;2024-03-06T08:01:09;4.80;99.90
2869;DHT22;1442;47.448;8.582;2024-03-06T08:03:38;4.80;99.90
2869;DHT22;1442;47.448;8.582;2024-03-06T08:06:07;4.80;99.90
2869;DHT22;1442;47.448;8.582;2024-03-06T08:08:34;4.80;99.90
2869;DHT22;1442;47.448;8.582;2024-03-06T08:11:01;4.80;99.90
2869;DHT22;1442;47.448;8.582;2024-03-06T08:13:28;4.90;99.90
2869;DHT22;1442;47.448;8.582;2024-03-06T08:15:55;4.90;99.90
2869;DHT22;1442;47.448;8.582;2024-03-06T08:18:22;4.80;99.90
2869;DHT22;1442;47.448;8.582;2024-03-06T08:20:48;4.90;99.90
2869;DHT22;1442;47.448;8.582;2024-03-06T08:23:16;4.80;99.90
2869;DHT22;1442;47.448;8.582;2024-03-06T08:25:43;4.90;99.90
2869;DHT22;1442;47.448;8.582;2024-03-06T08:28:10;4.90;99.90
2869;DHT22;1442;47.448;8.582;2024-03-06T08:30:37;4.90;99.90
2869;DHT22;1442;47.448;8.582;2024-03-06T08:33:04;4.80;99.90
2869;DHT22;1442;47.448;8.582;2024-03-06T08:35:31;4.80;99.90
2869;DHT22;1442;47.448;8.582;2024-03-06T08:37:57;4.90;99.90
2869;DHT22;1442;47.448;8.582;2024-03-06T08:40:26;4.90;99.90
2869;DHT22;1442;47.448;8.582;2024-03-06T08:42:53;4.90;99.90
2869;DHT22;1442;47.448;8.582;2024-03-06T08:45:21;5.00;99.90
2869;DHT22;1442;47.448;8.582;2024-03-06T08:47:49;5.00;99.90
2869;DHT22;1442;47.448;8.582;2024-03-06T08:50:17;5.00;99.90
2869;DHT22;1442;47.448;8.582;2024-03-06T08:52:45;5.10;99.90
2869;DHT22;1442;47.448;8.582;2024-03-06T08:55:12;5.10;99.90
2869;DHT22;1442;47.448;8.582;2024-03-06T08:57:40;5.10;99.90
2869;DHT22;1442;47.448;8.582;2024-03-06T09:00:08;5.10;99.90
2869;DHT22;1442;47.448;8.582;2024-03-06T09:02:36;5.20;99.90
2869;DHT22;1442;47.448;8.582;2024-03-06T09:05:04;5.20;99.90
2869;DHT22;1442;47.448;8.582;2024-03-06T09:07:31;5.20;99.90
2869;DHT22;1442;47.448;8.582;2024-03-06T09:10:03;5.20;99.90
2869;DHT22;1442;47.448;8.582;2024-03-06T09:12:31;5.10;99.90
2869;DHT22;1442;47.448;8.582;2024-03-06T09:14:59;5.00;99.90
2869;DHT22;1442;47.448;8.582;2024-03-06T09:17:26;5.00;99.90
2869;DHT22;1442;47.448;8.582;2024-03-06T09:19:53;5.00;99.90
2869;DHT22;1442;47.448;8.582;2024-03-06T09:22:20;5.00;99.90
2869;DHT22;1442;47.448;8.582;2024-03-06T09:24:48;5.10;99.90
2869;DHT22;1442;47.448;8.582;2024-03-06T09:27:15;5.10;99.90
2869;DHT22;1442;47.448;8.582;2024-03-06T09:29:42;5.10;99.90
2869;DHT22;1442;47.448;8.582;2024-03-06T09:32:11;5.10;99.90
2869;DHT22;1442;47.448;8.582;2024-03-06T09:34:41;5.10;99.90
2869;DHT22;1442;47.448;8.582;2024-03-06T09:37:08;5.10;99.90
2869;DHT22;1442;47.448;8.582;2024-03-06T09:39:35;5.10;99.90
2869;DHT22;1442;47.448;8.582;2024-03-06T09:42:02;5.20;99.90
2869;DHT22;1442;47.448;8.582;2024-03-06T09:44:29;5.10;99.90
2869;DHT22;1442;47.448;8.582;2024-03-06T09:46:59;5.10;99.90
2869;DHT22;1442;47.448;8.582;2024-03-06T09:49:30;5.00;99.90
2869;DHT22;1442;47.448;8.582;2024-03-06T09:51:58;5.00;99.90
2869;DHT22;1442;47.448;8.582;2024-03-06T09:54:26;5.00;99.90
2869;DHT22;1442;47.448;8.582;2024-03-06T09:56:53;5.00;99.90
2869;DHT22;1442;47.448;8.582;2024-03-06T09:59:22;5.00;99.90
2869;DHT22;1442;47.448;8.582;2024-03-06T10:01:50;5.10;99.90
2869;DHT22;1442;47.448;8.582;2024-03-06T10:04:21;5.00;99.90
2869;DHT22;1442;47.448;8.582;2024-03-06T10:06:49;5.00;99.90
2869;DHT22;1442;47.448;8.582;2024-03-06T10:09:18;5.10;99.90
2869;DHT22;1442;47.448;8.582;2024-03-06T10:11:44;5.10;99.90
2869;DHT22;1442;47.448;8.582;2024-03-06T10:14:12;5.10;99.90
2869;DHT22;1442;47.448;8.582;2024-03-06T10:16:54;5.20;99.90
2869;DHT22;1442;47.448;8.582;2024-03-06T10:19:23;5.20;99.90
2869;DHT22;1442;47.448;8.582;2024-03-06T10:21:52;5.30;99.90
2869;DHT22;1442;47.448;8.582;2024-03-06T10:24:20;5.20;99.90
2869;DHT22;1442;47.448;8.582;2024-03-06T10:26:49;5.20;99.90
2869;DHT22;1442;47.448;8.582;2024-03-06T10:29:16;5.20;99.90
2869;DHT22;1442;47.448;8.582;2024-03-06T10:31:52;5.20;99.90
2869;DHT22;1442;47.448;8.582;2024-03-06T10:34:20;5.20;99.90
2869;DHT22;1442;47.448;8.582;2024-03-06T10:36:52;5.30;99.90
2869;DHT22;1442;47.448;8.582;2024-03-06T10:39:20;5.30;99.90
2869;DHT22;1442;47.448;8.582;2024-03-06T10:41:52;5.30;99.90
2869;DHT22;1442;47.448;8.582;2024-03-06T10:44:21;5.40;99.90
2869;DHT22;1442;47.448;8.582;2024-03-06T10:46:51;5.40;99.90
2869;DHT22;1442;47.448;8.582;2024-03-06T10:49:23;5.50;99.90
2869;DHT22;1442;47.448;8.582;2024-03-06T10:51:52;5.50;99.90
2869;DHT22;1442;47.448;8.582;2024-03-06T10:54:19;5.60;99.90
2869;DHT22;1442;47.448;8.582;2024-03-06T10:56:48;5.60;99.90
2869;DHT22;1442;47.448;8.582;2024-03-06T10:59:16;5.60;99.90
2869;DHT22;1442;47.448;8.582;2024-03-06T11:01:44;5.70;99.90
2869;DHT22;1442;47.448;8.582;2024-03-06T11:04:13;5.70;99.90
2869;DHT22;1442;47.448;8.582;2024-03-06T11:06:40;5.80;99.90
2869;DHT22;1442;47.448;8.582;2024-03-06T11:09:09;5.80;99.90
2869;DHT22;1442;47.448;8.582;2024-03-06T11:11:47;5.90;99.90
2869;DHT22;1442;47.448;8.582;2024-03-06T11:14:14;5.90;99.90
2869;DHT22;1442;47.448;8.582;2024-03-06T11:16:56;5.90;99.90
2869;DHT22;1442;47.448;8.582;2024-03-06T11:19:24;6.00;99.90
2869;DHT22;1442;47.448;8.582;2024-03-06T11:21:50;6.00;99.90
2869;DHT22;1442;47.448;8.582;2024-03-06T11:24:22;6.00;99.90
2869;DHT22;1442;47.448;8.582;2024-03-06T11:26:53;6.00;99.90
2869;DHT22;1442;47.448;8.582;2024-03-06T11:29:21;6.00;99.90
2869;DHT22;1442;47.448;8.582;2024-03-06T11:32:06;6.10;99.90
2869;DHT22;1442;47.448;8.582;2024-03-06T11:34:36;6.10;99.90
2869;DHT22;1442;47.448;8.582;2024-03-06T11:37:04;6.20;99.90
2869;DHT22;1442;47.448;8.582;2024-03-06T11:39:34;6.20;99.90
2869;DHT22;1442;47.448;8.582;2024-03-06T11:42:02;6.20;99.90
2869;DHT22;1442;47.448;8.582;2024-03-06T11:44:31;6.20;99.90
2869;DHT22;1442;47.448;8.582;2024-03-06T11:46:59;6.30;99.90
2869;DHT22;1442;47.448;8.582;2024-03-06T11:49:27;6.20;99.90
2869;DHT22;1442;47.448;8.582;2024-03-06T11:51:55;6.30;99.90
2869;DHT22;1442;47.448;8.582;2024-03-06T11:54:23;6.30;99.90
2869;DHT22;1442;47.448;8.582;2024-03-06T11:56:51;6.20;99.90
2869;DHT22;1442;47.448;8.582;2024-03-06T11:59:21;6.30;99.90
2869;DHT22;1442;47.448;8.582;2024-03-06T12:01:48;6.30;99.90
2869;DHT22;1442;47.448;8.582;2024-03-06T12:04:14;6.30;99.90
2869;DHT22;1442;47.448;8.582;2024-03-06T12:06:41;6.30;99.90
2869;DHT22;1442;47.448;8.582;2024-03-06T12:09:08;6.40;99.90
2869;DHT22;1442;47.448;8.582;2024-03-06T12:11:37;6.40;99.90
2869;DHT22;1442;47.448;8.582;2024-03-06T12:14:05;6.50;99.90
2869;DHT22;1442;47.448;8.582;2024-03-06T12:16:33;6.50;99.90
2869;DHT22;1442;47.448;8.582;2024-03-06T12:19:00;6.50;99.90
2869;DHT22;1442;47.448;8.582;2024-03-06T12:21:31;6.50;99.90
2869;DHT22;1442;47.448;8.582;2024-03-06T12:24:06;6.50;99.90
2869;DHT22;1442;47.448;8.582;2024-03-06T12:26:33;6.50;99.90
2869;DHT22;1442;47.448;8.582;2024-03-06T12:29:09;6.50;99.90
2869;DHT22;1442;47.448;8.582;2024-03-06T12:31:37;6.60;99.90
2869;DHT22;1442;47.448;8.582;2024-03-06T12:34:05;6.60;99.90
2869;DHT22;1442;47.448;8.582;2024-03-06T12:36:33;6.60;99.90
2869;DHT22;1442;47.448;8.582;2024-03-06T12:39:01;6.70;99.90
2869;DHT22;1442;47.448;8.582;2024-03-06T12:41:29;6.70;99.90
2869;DHT22;1442;47.448;8.582;2024-03-06T12:43:56;6.80;99.90
2869;DHT22;1442;47.448;8.582;2024-03-06T12:46:24;6.70;99.90
2869;DHT22;1442;47.448;8.582;2024-03-06T12:48:52;6.80;99.90
2869;DHT22;1442;47.448;8.582;2024-03-06T12:51:18;6.80;99.90
2869;DHT22;1442;47.448;8.582;2024-03-06T12:53:45;6.70;99.90
2869;DHT22;1442;47.448;8.582;2024-03-06T12:56:13;6.70;99.90
2869;DHT22;1442;47.448;8.582;2024-03-06T12:58:40;6.80;99.90
2869;DHT22;1442;47.448;8.582;2024-03-06T13:01:07;6.80;99.90
2869;DHT22;1442;47.448;8.582;2024-03-06T13:03:35;6.80;99.90
2869;DHT22;1442;47.448;8.582;2024-03-06T13:06:02;6.80;99.90
2869;DHT22;1442;47.448;8.582;2024-03-06T13:08:29;6.80;99.90
2869;DHT22;1442;47.448;8.582;2024-03-06T13:10:56;6.90;99.90
2869;DHT22;1442;47.448;8.582;2024-03-06T13:13:23;6.90;99.90
2869;DHT22;1442;47.448;8.582;2024-03-06T13:15:50;6.90;99.90
2869;DHT22;1442;47.448;8.582;2024-03-06T13:18:17;6.80;99.90
2869;DHT22;1442;47.448;8.582;2024-03-06T13:20:45;6.80;99.90
2869;DHT22;1442;47.448;8.582;2024-03-06T13:23:12;6.80;99.90
2869;DHT22;1442;47.448;8.582;2024-03-06T13:25:39;6.80;99.90
2869;DHT22;1442;47.448;8.582;2024-03-06T13:28:07;6.80;99.90
2869;DHT22;1442;47.448;8.582;2024-03-06T13:30:34;6.80;99.90
2869;DHT22;1442;47.448;8.582;2024-03-06T13:33:01;6.80;99.90
2869;DHT22;1442;47.448;8.582;2024-03-06T13:35:28;6.80;99.90
2869;DHT22;1442;47.448;8.582;2024-03-06T13:37:56;6.80;99.90
2869;DHT22;1442;47.448;8.582;2024-03-06T13:40:23;6.70;99.90
2869;DHT22;1442;47.448;8.582;2024-03-06T13:42:52;6.70;99.90
2869;DHT22;1442;47.448;8.582;2024-03-06T13:45:19;6.60;99.90
2869;DHT22;1442;47.448;8.582;2024-03-06T13:47:46;6.60;99.90
2869;DHT22;1442;47.448;8.582;2024-03-06T13:50:15;6.60;99.90
2869;DHT22;1442;47.448;8.582;2024-03-06T13:52:42;6.70;99.90
2869;DHT22;1442;47.448;8.582;2024-03-06T13:55:10;6.70;99.90
2869;DHT22;1442;47.448;8.582;2024-03-06T13:57:40;6.60;99.90
2869;DHT22;1442;47.448;8.582;2024-03-06T14:00:07;6.60;99.90
2869;DHT22;1442;47.448;8.582;2024-03-06T14:02:37;6.60;99.90
2869;DHT22;1442;47.448;8.582;2024-03-06T14:05:05;6.70;99.90
2869;DHT22;1442;47.448;8.582;2024-03-06T14:07:33;6.70;99.90
2869;DHT22;1442;47.448;8.582;2024-03-06T14:09:59;6.70;99.90
2869;DHT22;1442;47.448;8.582;2024-03-06T14:12:27;6.70;99.90
2869;DHT22;1442;47.448;8.582;2024-03-06T14:14:55;6.70;99.90
2869;DHT22;1442;47.448;8.582;2024-03-06T14:17:22;6.70;99.90
2869;DHT22;1442;47.448;8.582;2024-03-06T14:19:49;6.70;99.90
2869;DHT22;1442;47.448;8.582;2024-03-06T14:22:16;6.80;99.90
2869;DHT22;1442;47.448;8.582;2024-03-06T14:24:43;6.70;99.90
2869;DHT22;1442;47.448;8.582;2024-03-06T14:27:10;6.80;99.90
2869;DHT22;1442;47.448;8.582;2024-03-06T14:29:39;6.70;99.90
2869;DHT22;1442;47.448;8.582;2024-03-06T14:32:06;6.70;99.90
2869;DHT22;1442;47.448;8.582;2024-03-06T14:34:34;6.70;99.90
2869;DHT22;1442;47.448;8.582;2024-03-06T14:37:01;6.70;99.90
2869;DHT22;1442;47.448;8.582;2024-03-06T14:39:28;6.70;99.90
2869;DHT22;1442;47.448;8.582;2024-03-06T14:41:55;6.70;99.90
2869;DHT22;1442;47.448;8.582;2024-03-06T14:44:21;6.70;99.90
2869;DHT22;1442;47.448;8.582;2024-03-06T14:46:50;6.70;99.90
2869;DHT22;1442;47.448;8.582;2024-03-06T14:49:16;6.70;99.90
2869;DHT22;1442;47.448;8.582;2024-03-06T14:51:43;6.70;99.90
2869;DHT22;1442;47.448;8.582;2024-03-06T14:54:10;6.70;99.90
2869;DHT22;1442;47.448;8.582;2024-03-06T14:56:37;6.70;99.90
2869;DHT22;1442;47.448;8.582;2024-03-06T14:59:04;6.70;99.90
2869;DHT22;1442;47.448;8.582;2024-03-06T15:01:30;6.70;99.90
2869;DHT22;1442;47.448;8.582;2024-03-06T15:03:58;6.60;99.90
2869;DHT22;1442;47.448;8.582;2024-03-06T15:06:25;6.60;99.90
2869;DHT22;1442;47.448;8.582;2024-03-06T15:08:52;6.60;99.90
2869;DHT22;1442;47.448;8.582;2024-03-06T15:11:19;6.60;99.90
2869;DHT22;1442;47.448;8.582;2024-03-06T15:13:47;6.60;99.90
2869;DHT22;1442;47.448;8.582;2024-03-06T15:16:14;6.60;99.90
2869;DHT22;1442;47.448;8.582;2024-03-06T15:18:41;6.60;99.90
2869;DHT22;1442;47.448;8.582;2024-03-06T15:21:10;6.60;99.90
2869;DHT22;1442;47.448;8.582;2024-03-06T15:23:38;6.60;99.90
2869;DHT22;1442;47.448;8.582;2024-03-06T15:26:05;6.60;99.90
2869;DHT22;1442;47.448;8.582;2024-03-06T15:28:32;6.60;99.90
2869;DHT22;1442;47.448;8.582;2024-03-06T15:30:58;6.60;99.90
2869;DHT22;1442;47.448;8.582;2024-03-06T15:33:29;6.60;99.90
2869;DHT22;1442;47.448;8.582;2024-03-06T15:35:56;6.60;99.90
2869;DHT22;1442;47.448;8.582;2024-03-06T15:38:26;6.60;99.90
2869;DHT22;1442;47.448;8.582;2024-03-06T15:40:53;6.60;99.90
2869;DHT22;1442;47.448;8.582;2024-03-06T15:43:20;6.60;99.90
2869;DHT22;1442;47.448;8.582;2024-03-06T15:45:47;6.60;99.90
2869;DHT22;1442;47.448;8.582;2024-03-06T15:48:13;6.50;99.90
2869;DHT22;1442;47.448;8.582;2024-03-06T15:50:40;6.50;99.90
2869;DHT22;1442;47.448;8.582;2024-03-06T15:53:07;6.50;99.90
2869;DHT22;1442;47.448;8.582;2024-03-06T15:55:35;6.50;99.90
2869;DHT22;1442;47.448;8.582;2024-03-06T15:58:03;6.60;99.90
2869;DHT22;1442;47.448;8.582;2024-03-06T16:00:30;6.60;99.90
2869;DHT22;1442;47.448;8.582;2024-03-06T16:02:57;6.70;99.90
2869;DHT22;1442;47.448;8.582;2024-03-06T16:05:24;6.60;99.90
2869;DHT22;1442;47.448;8.582;2024-03-06T16:07:56;6.70;99.90
2869;DHT22;1442;47.448;8.582;2024-03-06T16:10:25;6.70;99.90
2869;DHT22;1442;47.448;8.582;2024-03-06T16:12:53;6.70;99.90
2869;DHT22;1442;47.448;8.582;2024-03-06T16:15:20;6.70;99.90
2869;DHT22;1442;47.448;8.582;2024-03-06T16:17:47;6.60;99.90
2869;DHT22;1442;47.448;8.582;2024-03-06T16:20:13;6.60;99.90